sensor_id;sensor_type;location;lat;lon;timestamp;pressure;altitude;pressure_sealevel;temperature;humidity
71573;BME280;59408;51.032;9.410;2023-12-20T00:00:27;98782.47;;;2.75;100.00
71573;BME280;59408;51.032;9.410;2023-12-20T00:02:54;98796.94;;;2.80;100.00
71573;BME280;59408;51.032;9.410;2023-12-20T00:05:20;98798.25;;;2.82;100.00
71573;BME280;59408;51.032;9.410;2023-12-20T00:07:47;98782.38;;;2.81;100.00
71573;BME280;59408;51.032;9.410;2023-12-20T00:10:14;98785.38;;;2.79;100.00
71573;BME280;59408;51.032;9.410;2023-12-20T00:12:42;98794.44;;;2.83;100.00
71573;BME280;59408;51.032;9.410;2023-12-20T00:15:09;98794.78;;;2.82;100.00
71573;BME280;59408;51.032;9.410;2023-12-20T00:17:35;98793.16;;;2.81;100.00
71573;BME280;59408;51.032;9.410;2023-12-20T00:20:02;98785.88;;;2.81;100.00
71573;BME280;59408;51.032;9.410;2023-12-20T00:22:29;98782.09;;;2.82;100.00
71573;BME280;59408;51.032;9.410;2023-12-20T00:24:55;98780.69;;;2.85;100.00
71573;BME280;59408;51.032;9.410;2023-12-20T00:27:22;98778.50;;;2.87;100.00
71573;BME280;59408;51.032;9.410;2023-12-20T00:29:50;98781.50;;;2.85;100.00
71573;BME280;59408;51.032;9.410;2023-12-20T00:32:16;98779.59;;;2.86;100.00
71573;BME280;59408;51.032;9.410;2023-12-20T00:34:43;98780.13;;;2.88;100.00
71573;BME280;59408;51.032;9.410;2023-12-20T00:37:09;98777.94;;;2.90;100.00
71573;BME280;59408;51.032;9.410;2023-12-20T00:39:36;98782.53;;;2.89;100.00
71573;BME280;59408;51.032;9.410;2023-12-20T00:42:03;98779.81;;;2.89;100.00
71573;BME280;59408;51.032;9.410;2023-12-20T00:44:29;98784.94;;;2.91;100.00
71573;BME280;59408;51.032;9.410;2023-12-20T00:46:57;98770.34;;;2.92;100.00
71573;BME280;59408;51.032;9.410;2023-12-20T00:49:24;98763.28;;;2.96;100.00
71573;BME280;59408;51.032;9.410;2023-12-20T00:51:50;98764.66;;;2.93;100.00
71573;BME280;59408;51.032;9.410;2023-12-20T00:54:17;98755.78;;;2.93;100.00
71573;BME280;59408;51.032;9.410;2023-12-20T00:56:43;98754.50;;;2.90;100.00
71573;BME280;59408;51.032;9.410;2023-12-20T00:59:10;98752.59;;;2.91;100.00
71573;BME280;59408;51.032;9.410;2023-12-20T01:01:36;98764.47;;;2.90;100.00
71573;BME280;59408;51.032;9.410;2023-12-20T01:04:05;98748.78;;;2.92;100.00
71573;BME280;59408;51.032;9.410;2023-12-20T01:06:31;98749.59;;;2.92;100.00
71573;BME280;59408;51.032;9.410;2023-12-20T01:08:58;98737.44;;;2.95;100.00
71573;BME280;59408;51.032;9.410;2023-12-20T01:11:24;98732.56;;;2.97;100.00
71573;BME280;59408;51.032;9.410;2023-12-20T01:13:51;98750.09;;;2.94;100.00
71573;BME280;59408;51.032;9.410;2023-12-20T01:16:17;98740.91;;;2.95;100.00
71573;BME280;59408;51.032;9.410;2023-12-20T01:18:44;98744.13;;;2.97;100.00
71573;BME280;59408;51.032;9.410;2023-12-20T01:21:12;98729.34;;;2.95;100.00
71573;BME280;59408;51.032;9.410;2023-12-20T01:23:38;98736.56;;;2.99;100.00
71573;BME280;59408;51.032;9.410;2023-12-20T01:26:05;98738.94;;;3.01;100.00
71573;BME280;59408;51.032;9.410;2023-12-20T01:28:31;98750.03;;;2.99;100.00
71573;BME280;59408;51.032;9.410;2023-12-20T01:30:58;98755.88;;;3.01;100.00
71573;BME280;59408;51.032;9.410;2023-12-20T01:33:25;98754.00;;;3.02;100.00
71573;BME280;59408;51.032;9.410;2023-12-20T01:35:51;98752.63;;;3.04;100.00
71573;BME280;59408;51.032;9.410;2023-12-20T01:38:19;98752.09;;;3.02;100.00
71573;BME280;59408;51.032;9.410;2023-12-20T01:40:46;98751.31;;;3.02;100.00
71573;BME280;59408;51.032;9.410;2023-12-20T01:43:13;98744.63;;;2.99;100.00
71573;BME280;59408;51.032;9.410;2023-12-20T01:45:39;98751.63;;;3.00;100.00
71573;BME280;59408;51.032;9.410;2023-12-20T01:48:07;98738.34;;;3.04;100.00
71573;BME280;59408;51.032;9.410;2023-12-20T01:50:35;98750.22;;;3.03;100.00
71573;BME280;59408;51.032;9.410;2023-12-20T01:53:03;98750.72;;;3.05;100.00
71573;BME280;59408;51.032;9.410;2023-12-20T01:55:34;98731.88;;;3.05;100.00
71573;BME280;59408;51.032;9.410;2023-12-20T01:58:03;98726.97;;;3.07;100.00
71573;BME280;59408;51.032;9.410;2023-12-20T02:00:31;98737.75;;;3.07;100.00
71573;BME280;59408;51.032;9.410;2023-12-20T02:03:00;98736.44;;;3.04;100.00
71573;BME280;59408;51.032;9.410;2023-12-20T02:05:27;98728.59;;;3.08;100.00
71573;BME280;59408;51.032;9.410;2023-12-20T02:07:54;98728.28;;;3.09;100.00
71573;BME280;59408;51.032;9.410;2023-12-20T02:10:21;98733.19;;;3.07;100.00
71573;BME280;59408;51.032;9.410;2023-12-20T02:12:49;98735.88;;;3.07;100.00
71573;BME280;59408;51.032;9.410;2023-12-20T02:15:16;98733.97;;;3.08;100.00
71573;BME280;59408;51.032;9.410;2023-12-20T02:17:43;98732.09;;;3.08;100.00
71573;BME280;59408;51.032;9.410;2023-12-20T02:20:11;98731.28;;;3.08;100.00
71573;BME280;59408;51.032;9.410;2023-12-20T02:22:39;98731.00;;;3.09;100.00
71573;BME280;59408;51.032;9.410;2023-12-20T02:25:06;98725.09;;;3.07;100.00
71573;BME280;59408;51.032;9.410;2023-12-20T02:27:33;98723.50;;;3.06;100.00
71573;BME280;59408;51.032;9.410;2023-12-20T02:30:01;98721.88;;;3.05;100.00
71573;BME280;59408;51.032;9.410;2023-12-20T02:32:27;98724.06;;;3.03;100.00
71573;BME280;59408;51.032;9.410;2023-12-20T02:34:55;98715.69;;;3.05;100.00
71573;BME280;59408;51.032;9.410;2023-12-20T02:37:22;98728.06;;;3.06;100.00
71573;BME280;59408;51.032;9.410;2023-12-20T02:39:50;98734.56;;;3.05;100.00
71573;BME280;59408;51.032;9.410;2023-12-20T02:42:16;98720.78;;;3.06;100.00
71573;BME280;59408;51.032;9.410;2023-12-20T02:44:43;98736.16;;;3.06;100.00
71573;BME280;59408;51.032;9.410;2023-12-20T02:47:10;98729.38;;;3.08;100.00
71573;BME280;59408;51.032;9.410;2023-12-20T02:49:36;98735.88;;;3.07;100.00
71573;BME280;59408;51.032;9.410;2023-12-20T02:52:04;98737.47;;;3.08;100.00
71573;BME280;59408;51.032;9.410;2023-12-20T02:54:30;98736.66;;;3.08;100.00
71573;BME280;59408;51.032;9.410;2023-12-20T02:56:58;98732.09;;;3.08;100.00
71573;BME280;59408;51.032;9.410;2023-12-20T02:59:25;98733.97;;;3.08;100.00
71573;BME280;59408;51.032;9.410;2023-12-20T03:01:51;98739.56;;;3.11;100.00
71573;BME280;59408;51.032;9.410;2023-12-20T03:04:18;98742.25;;;3.11;100.00
71573;BME280;59408;51.032;9.410;2023-12-20T03:06:45;98741.16;;;3.12;100.00
71573;BME280;59408;51.032;9.410;2023-12-20T03:09:11;98742.25;;;3.11;100.00
71573;BME280;59408;51.032;9.410;2023-12-20T03:11:38;98746.84;;;3.11;100.00
71573;BME280;59408;51.032;9.410;2023-12-20T03:14:06;98744.13;;;3.11;100.00
71573;BME280;59408;51.032;9.410;2023-12-20T03:16:32;98743.34;;;3.10;100.00
71573;BME280;59408;51.032;9.410;2023-12-20T03:19:02;98750.63;;;3.10;100.00
71573;BME280;59408;51.032;9.410;2023-12-20T03:21:29;98751.41;;;3.10;100.00
71573;BME280;59408;51.032;9.410;2023-12-20T03:23:56;98756.34;;;3.08;100.00
71573;BME280;59408;51.032;9.410;2023-12-20T03:26:22;98754.72;;;3.07;100.00
71573;BME280;59408;51.032;9.410;2023-12-20T03:28:49;98752.03;;;3.07;100.00
71573;BME280;59408;51.032;9.410;2023-12-20T03:31:17;98757.44;;;3.07;100.00
71573;BME280;59408;51.032;9.410;2023-12-20T03:33:43;98758.69;;;3.10;100.00
71573;BME280;59408;51.032;9.410;2023-12-20T03:36:10;98761.41;;;3.10;100.00
71573;BME280;59408;51.032;9.410;2023-12-20T03:38:36;98762.19;;;3.10;100.00
71573;BME280;59408;51.032;9.410;2023-12-20T03:41:04;98763.31;;;3.09;100.00
71573;BME280;59408;51.032;9.410;2023-12-20T03:43:30;98758.22;;;3.08;100.00
71573;BME280;59408;51.032;9.410;2023-12-20T03:45:57;98758.69;;;3.10;100.00
71573;BME280;59408;51.032;9.410;2023-12-20T03:48:25;98758.69;;;3.10;100.00
71573;BME280;59408;51.032;9.410;2023-12-20T03:50:52;98755.72;;;3.11;100.00
71573;BME280;59408;51.032;9.410;2023-12-20T03:53:18;98767.59;;;3.10;100.00
71573;BME280;59408;51.032;9.410;2023-12-20T03:55:45;98758.69;;;3.10;100.00
71573;BME280;59408;51.032;9.410;2023-12-20T03:58:11;98761.41;;;3.10;100.00
71573;BME280;59408;51.032;9.410;2023-12-20T04:00:38;98761.72;;;3.08;100.00
71573;BME280;59408;51.032;9.410;2023-12-20T04:03:05;98763.91;;;3.06;100.00
71573;BME280;59408;51.032;9.410;2023-12-20T04:05:33;98775.19;;;3.08;100.00
71573;BME280;59408;51.032;9.410;2023-12-20T04:08:00;98772.19;;;3.10;100.00
71573;BME280;59408;51.032;9.410;2023-12-20T04:10:27;98768.59;;;3.14;100.00
71573;BME280;59408;51.032;9.410;2023-12-20T04:12:54;98767.69;;;3.19;100.00
71573;BME280;59408;51.032;9.410;2023-12-20T04:15:20;98771.19;;;3.20;100.00
71573;BME280;59408;51.032;9.410;2023-12-20T04:17:47;98773.91;;;3.20;100.00
71573;BME280;59408;51.032;9.410;2023-12-20T04:20:14;98772.81;;;3.21;100.00
71573;BME280;59408;51.032;9.410;2023-12-20T04:22:42;98772.50;;;3.22;100.00
71573;BME280;59408;51.032;9.410;2023-12-20T04:25:08;98782.78;;;3.20;100.00
71573;BME280;59408;51.032;9.410;2023-12-20T04:27:35;98769.69;;;3.13;100.00
71573;BME280;59408;51.032;9.410;2023-12-20T04:30:01;98766.22;;;3.13;100.00
71573;BME280;59408;51.032;9.410;2023-12-20T04:32:28;98762.59;;;3.04;100.00
71573;BME280;59408;51.032;9.410;2023-12-20T04:34:54;98764.59;;;2.98;100.00
71573;BME280;59408;51.032;9.410;2023-12-20T04:37:21;98755.28;;;2.91;100.00
71573;BME280;59408;51.032;9.410;2023-12-20T04:39:49;98752.75;;;2.81;100.00
71573;BME280;59408;51.032;9.410;2023-12-20T04:42:16;98748.06;;;2.72;100.00
71573;BME280;59408;51.032;9.410;2023-12-20T04:44:42;98750.00;;;2.67;100.00
71573;BME280;59408;51.032;9.410;2023-12-20T04:47:09;98770.84;;;2.61;100.00
71573;BME280;59408;51.032;9.410;2023-12-20T04:49:35;98767.34;;;2.61;100.00
71573;BME280;59408;51.032;9.410;2023-12-20T04:52:02;98768.22;;;2.56;100.00
71573;BME280;59408;51.032;9.410;2023-12-20T04:54:29;98772.31;;;2.54;100.00
71573;BME280;59408;51.032;9.410;2023-12-20T04:56:57;98784.06;;;2.58;100.00
71573;BME280;59408;51.032;9.410;2023-12-20T04:59:23;98793.75;;;2.59;100.00
71573;BME280;59408;51.032;9.410;2023-12-20T05:01:50;98811.75;;;2.63;100.00
71573;BME280;59408;51.032;9.410;2023-12-20T05:04:16;98803.28;;;2.70;100.00
71573;BME280;59408;51.032;9.410;2023-12-20T05:06:43;98819.66;;;2.73;100.00
71573;BME280;59408;51.032;9.410;2023-12-20T05:09:09;98809.09;;;2.77;100.00
71573;BME280;59408;51.032;9.410;2023-12-20T05:11:36;98806.69;;;2.75;100.00
71573;BME280;59408;51.032;9.410;2023-12-20T05:14:04;98811.09;;;2.71;100.00
71573;BME280;59408;51.032;9.410;2023-12-20T05:16:30;98800.09;;;2.68;100.00
71573;BME280;59408;51.032;9.410;2023-12-20T05:18:57;98797.97;;;2.65;100.00
71573;BME280;59408;51.032;9.410;2023-12-20T05:21:23;98795.78;;;2.67;100.00
71573;BME280;59408;51.032;9.410;2023-12-20T05:23:50;98800.19;;;2.63;100.00
71573;BME280;59408;51.032;9.410;2023-12-20T05:26:16;98801.03;;;2.58;100.00
71573;BME280;59408;51.032;9.410;2023-12-20T05:28:43;98796.97;;;2.61;100.00
71573;BME280;59408;51.032;9.410;2023-12-20T05:31:11;98809.06;;;2.63;100.00
71573;BME280;59408;51.032;9.410;2023-12-20T05:33:38;98805.69;;;2.71;100.00
71573;BME280;59408;51.032;9.410;2023-12-20T05:36:05;98804.88;;;2.71;100.00
71573;BME280;59408;51.032;9.410;2023-12-20T05:38:31;98799.00;;;2.69;100.00
71573;BME280;59408;51.032;9.410;2023-12-20T05:40:58;98796.88;;;2.66;100.00
71573;BME280;59408;51.032;9.410;2023-12-20T05:43:25;98798.34;;;2.58;100.00
71573;BME280;59408;51.032;9.410;2023-12-20T05:45:51;98797.63;;;2.53;100.00
71573;BME280;59408;51.032;9.410;2023-12-20T05:48:19;98799.81;;;2.51;100.00
71573;BME280;59408;51.032;9.410;2023-12-20T05:50:46;98797.97;;;2.46;100.00
71573;BME280;59408;51.032;9.410;2023-12-20T05:53:12;98809.91;;;2.40;100.00
71573;BME280;59408;51.032;9.410;2023-12-20T05:55:39;98808.59;;;2.37;100.00
71573;BME280;59408;51.032;9.410;2023-12-20T05:58:06;98807.50;;;2.38;100.00
71573;BME280;59408;51.032;9.410;2023-12-20T06:00:32;98813.16;;;2.37;100.00
71573;BME280;59408;51.032;9.410;2023-12-20T06:02:59;98818.13;;;2.30;100.00
71573;BME280;59408;51.032;9.410;2023-12-20T06:05:27;98826.78;;;2.27;100.00
71573;BME280;59408;51.032;9.410;2023-12-20T06:07:53;98822.69;;;2.29;100.00
71573;BME280;59408;51.032;9.410;2023-12-20T06:10:20;98820.81;;;2.30;100.00
71573;BME280;59408;51.032;9.410;2023-12-20T06:12:47;98821.63;;;2.30;100.00
71573;BME280;59408;51.032;9.410;2023-12-20T06:15:14;98830.06;;;2.24;100.00
71573;BME280;59408;51.032;9.410;2023-12-20T06:17:40;98829.81;;;2.20;100.00
71573;BME280;59408;51.032;9.410;2023-12-20T06:20:08;98825.84;;;2.18;100.00
71573;BME280;59408;51.032;9.410;2023-12-20T06:22:36;98829.94;;;2.10;100.00
71573;BME280;59408;51.032;9.410;2023-12-20T06:25:03;98830.53;;;2.07;100.00
71573;BME280;59408;51.032;9.410;2023-12-20T06:27:30;98823.59;;;2.01;100.00
71573;BME280;59408;51.032;9.410;2023-12-20T06:29:56;98822.31;;;1.98;100.00
71573;BME280;59408;51.032;9.410;2023-12-20T06:32:23;98816.69;;;1.95;100.00
71573;BME280;59408;51.032;9.410;2023-12-20T06:34:50;98811.88;;;1.92;100.00
71573;BME280;59408;51.032;9.410;2023-12-20T06:37:17;98821.84;;;1.91;100.00
71573;BME280;59408;51.032;9.410;2023-12-20T06:39:45;98821.56;;;1.93;100.00
71573;BME280;59408;51.032;9.410;2023-12-20T06:42:11;98817.78;;;1.94;100.00
71573;BME280;59408;51.032;9.410;2023-12-20T06:44:38;98822.81;;;2.00;100.00
71573;BME280;59408;51.032;9.410;2023-12-20T06:47:04;98815.53;;;2.01;100.00
71573;BME280;59408;51.032;9.410;2023-12-20T06:49:31;98814.72;;;2.00;100.00
71573;BME280;59408;51.032;9.410;2023-12-20T06:51:58;98812.03;;;2.00;100.00
71573;BME280;59408;51.032;9.410;2023-12-20T06:54:25;98817.13;;;2.02;100.00
71573;BME280;59408;51.032;9.410;2023-12-20T06:56:53;98807.69;;;2.05;100.00
71573;BME280;59408;51.032;9.410;2023-12-20T06:59:19;98809.88;;;2.03;100.00
71573;BME280;59408;51.032;9.410;2023-12-20T07:01:47;98811.19;;;2.05;100.00
71573;BME280;59408;51.032;9.410;2023-12-20T07:04:14;98814.13;;;2.09;100.00
71573;BME280;59408;51.032;9.410;2023-12-20T07:06:40;98803.63;;;2.07;100.00
71573;BME280;59408;51.032;9.410;2023-12-20T07:09:07;98816.81;;;2.09;100.00
71573;BME280;59408;51.032;9.410;2023-12-20T07:11:33;98812.78;;;2.06;100.00
71573;BME280;59408;51.032;9.410;2023-12-20T07:14:01;98808.50;;;2.05;100.00
71573;BME280;59408;51.032;9.410;2023-12-20T07:16:28;98820.88;;;2.06;100.00
71573;BME280;59408;51.032;9.410;2023-12-20T07:18:54;98815.22;;;2.08;100.00
71573;BME280;59408;51.032;9.410;2023-12-20T07:21:21;98825.16;;;2.07;100.00
71573;BME280;59408;51.032;9.410;2023-12-20T07:23:47;98812.78;;;2.06;100.00
71573;BME280;59408;51.032;9.410;2023-12-20T07:26:15;98815.22;;;2.08;100.00
71573;BME280;59408;51.032;9.410;2023-12-20T07:28:42;98820.78;;;2.11;100.00
71573;BME280;59408;51.032;9.410;2023-12-20T07:31:10;98835.56;;;2.14;100.00
71573;BME280;59408;51.032;9.410;2023-12-20T07:33:36;98836.94;;;2.11;100.00
71573;BME280;59408;51.032;9.410;2023-12-20T07:36:06;98835.63;;;2.09;100.00
71573;BME280;59408;51.032;9.410;2023-12-20T07:38:32;98846.41;;;2.09;100.00
71573;BME280;59408;51.032;9.410;2023-12-20T07:40:59;98850.63;;;2.15;100.00
71573;BME280;59408;51.032;9.410;2023-12-20T07:43:26;98855.13;;;2.19;100.00
71573;BME280;59408;51.032;9.410;2023-12-20T07:45:53;98851.34;;;2.20;100.00
71573;BME280;59408;51.032;9.410;2023-12-20T07:48:21;98839.66;;;2.30;100.00
71573;BME280;59408;51.032;9.410;2023-12-20T07:50:47;98839.38;;;2.31;100.00
71573;BME280;59408;51.032;9.410;2023-12-20T07:53:14;98849.78;;;2.38;100.00
71573;BME280;59408;51.032;9.410;2023-12-20T07:55:40;98857.03;;;2.37;100.00
71573;BME280;59408;51.032;9.410;2023-12-20T07:58:07;98856.25;;;2.37;100.00
71573;BME280;59408;51.032;9.410;2023-12-20T08:00:33;98858.72;;;2.33;100.00
71573;BME280;59408;51.032;9.410;2023-12-20T08:03:00;98861.94;;;2.35;100.00
71573;BME280;59408;51.032;9.410;2023-12-20T08:05:28;98863.53;;;2.36;100.00
71573;BME280;59408;51.032;9.410;2023-12-20T08:07:55;98863.81;;;2.35;100.00
71573;BME280;59408;51.032;9.410;2023-12-20T08:10:22;98860.03;;;2.36;100.00
71573;BME280;59408;51.032;9.410;2023-12-20T08:12:48;98865.63;;;2.39;100.00
71573;BME280;59408;51.032;9.410;2023-12-20T08:15:15;98863.47;;;2.42;100.00
71573;BME280;59408;51.032;9.410;2023-12-20T08:17:41;98880.69;;;2.41;100.00
71573;BME280;59408;51.032;9.410;2023-12-20T08:20:09;98867.53;;;2.39;100.00
71573;BME280;59408;51.032;9.410;2023-12-20T08:22:37;98859.69;;;2.43;100.00
71573;BME280;59408;51.032;9.410;2023-12-20T08:25:04;98867.19;;;2.46;100.00
71573;BME280;59408;51.032;9.410;2023-12-20T08:27:31;98865.25;;;2.46;100.00
71573;BME280;59408;51.032;9.410;2023-12-20T08:29:57;98865.59;;;2.45;100.00
71573;BME280;59408;51.032;9.410;2023-12-20T08:32:25;98867.47;;;2.44;100.00
71573;BME280;59408;51.032;9.410;2023-12-20T08:34:52;98871.25;;;2.43;100.00
71573;BME280;59408;51.032;9.410;2023-12-20T08:37:18;98867.97;;;2.46;100.00
71573;BME280;59408;51.032;9.410;2023-12-20T08:39:46;98858.50;;;2.49;100.00
71573;BME280;59408;51.032;9.410;2023-12-20T08:42:13;98864.19;;;2.47;100.00
71573;BME280;59408;51.032;9.410;2023-12-20T08:44:39;98855.00;;;2.48;100.00
71573;BME280;59408;51.032;9.410;2023-12-20T08:47:06;98858.94;;;2.56;100.00
71573;BME280;59408;51.032;9.410;2023-12-20T08:49:32;98852.75;;;2.55;100.00
71573;BME280;59408;51.032;9.410;2023-12-20T08:51:59;98857.06;;;2.56;100.00
71573;BME280;59408;51.032;9.410;2023-12-20T08:54:26;98857.66;;;2.53;100.00
71573;BME280;59408;51.032;9.410;2023-12-20T08:56:53;98850.38;;;2.54;100.00
71573;BME280;59408;51.032;9.410;2023-12-20T08:59:20;98855.81;;;2.49;100.00
71573;BME280;59408;51.032;9.410;2023-12-20T09:01:46;98857.44;;;2.50;100.00
71573;BME280;59408;51.032;9.410;2023-12-20T09:04:13;98857.94;;;2.52;100.00
71573;BME280;59408;51.032;9.410;2023-12-20T09:06:40;98860.34;;;2.53;100.00
71573;BME280;59408;51.032;9.410;2023-12-20T09:09:08;98848.94;;;2.61;100.00
71573;BME280;59408;51.032;9.410;2023-12-20T09:11:34;98857.34;;;2.73;100.00
71573;BME280;59408;51.032;9.410;2023-12-20T09:14:02;98852.47;;;2.75;100.00
71573;BME280;59408;51.032;9.410;2023-12-20T09:16:29;98857.28;;;2.79;100.00
71573;BME280;59408;51.032;9.410;2023-12-20T09:18:55;98859.41;;;2.82;100.00
71573;BME280;59408;51.032;9.410;2023-12-20T09:21:22;98856.63;;;2.87;100.00
71573;BME280;59408;51.032;9.410;2023-12-20T09:23:49;98857.72;;;2.86;100.00
71573;BME280;59408;51.032;9.410;2023-12-20T09:26:16;98864.41;;;2.88;100.00
71573;BME280;59408;51.032;9.410;2023-12-20T09:28:42;98862.16;;;2.95;100.00
71573;BME280;59408;51.032;9.410;2023-12-20T09:31:10;98869.78;;;3.07;100.00
71573;BME280;59408;51.032;9.410;2023-12-20T09:33:37;98875.38;;;3.10;100.00
71573;BME280;59408;51.032;9.410;2023-12-20T09:36:04;98881.69;;;3.20;100.00
71573;BME280;59408;51.032;9.410;2023-12-20T09:38:31;98876.63;;;3.18;100.00
71573;BME280;59408;51.032;9.410;2023-12-20T09:40:58;98874.41;;;3.20;100.00
71573;BME280;59408;51.032;9.410;2023-12-20T09:43:25;98870.03;;;3.24;100.00
71573;BME280;59408;51.032;9.410;2023-12-20T09:45:53;98866.66;;;3.32;100.00
71573;BME280;59408;51.032;9.410;2023-12-20T09:48:21;98855.59;;;3.34;100.00
71573;BME280;59408;51.032;9.410;2023-12-20T09:50:48;98861.50;;;3.36;100.00
71573;BME280;59408;51.032;9.410;2023-12-20T09:53:20;98855.50;;;3.39;100.00
71573;BME280;59408;51.032;9.410;2023-12-20T09:55:47;98851.72;;;3.40;100.00
71573;BME280;59408;51.032;9.410;2023-12-20T09:58:13;98855.78;;;3.37;100.00
71573;BME280;59408;51.032;9.410;2023-12-20T10:00:40;98854.69;;;3.38;100.00
71573;BME280;59408;51.032;9.410;2023-12-20T10:03:08;98850.41;;;3.37;100.00
71573;BME280;59408;51.032;9.410;2023-12-20T10:05:39;98860.72;;;3.49;100.00
71573;BME280;59408;51.032;9.410;2023-12-20T10:08:10;98848.16;;;3.58;100.00
71573;BME280;59408;51.032;9.410;2023-12-20T10:10:36;98834.09;;;3.61;100.00
71573;BME280;59408;51.032;9.410;2023-12-20T10:13:13;98824.00;;;3.67;100.00
71573;BME280;59408;51.032;9.410;2023-12-20T10:15:40;98827.69;;;3.71;100.00
71573;BME280;59408;51.032;9.410;2023-12-20T10:18:07;98827.19;;;3.69;100.00
71573;BME280;59408;51.032;9.410;2023-12-20T10:20:34;98826.09;;;3.70;100.00
71573;BME280;59408;51.032;9.410;2023-12-20T10:23:02;98833.50;;;3.64;100.00
71573;BME280;59408;51.032;9.410;2023-12-20T10:25:28;98835.41;;;3.64;100.00
71573;BME280;59408;51.032;9.410;2023-12-20T10:28:09;98818.59;;;3.67;100.00
71573;BME280;59408;51.032;9.410;2023-12-20T10:30:36;98819.78;;;3.74;100.00
71573;BME280;59408;51.032;9.410;2023-12-20T10:33:05;98827.09;;;3.74;100.00
71573;BME280;59408;51.032;9.410;2023-12-20T10:35:32;98821.59;;;3.79;100.00
71573;BME280;59408;51.032;9.410;2023-12-20T10:38:04;98815.41;;;3.78;100.00
71573;BME280;59408;51.032;9.410;2023-12-20T10:40:31;98815.13;;;3.80;100.00
71573;BME280;59408;51.032;9.410;2023-12-20T10:42:58;98811.31;;;3.81;100.00
71573;BME280;59408;51.032;9.410;2023-12-20T10:45:25;98812.31;;;3.85;100.00
71573;BME280;59408;51.032;9.410;2023-12-20T10:47:52;98801.34;;;3.81;100.00
71573;BME280;59408;51.032;9.410;2023-12-20T10:50:19;98811.41;;;3.89;100.00
71573;BME280;59408;51.032;9.410;2023-12-20T10:52:47;98805.41;;;3.93;100.00
71573;BME280;59408;51.032;9.410;2023-12-20T10:55:15;98816.63;;;4.00;100.00
71573;BME280;59408;51.032;9.410;2023-12-20T10:57:42;98810.59;;;4.03;100.00
71573;BME280;59408;51.032;9.410;2023-12-20T11:00:13;98806.31;;;3.88;100.00
71573;BME280;59408;51.032;9.410;2023-12-20T11:02:40;98807.09;;;3.75;100.00
71573;BME280;59408;51.032;9.410;2023-12-20T11:05:10;98808.31;;;3.69;100.00
71573;BME280;59408;51.032;9.410;2023-12-20T11:07:43;98812.91;;;3.68;100.00
71573;BME280;59408;51.032;9.410;2023-12-20T11:10:18;98803.09;;;3.59;100.00
71573;BME280;59408;51.032;9.410;2023-12-20T11:12:51;98800.41;;;3.59;100.00
71573;BME280;59408;51.032;9.410;2023-12-20T11:15:19;98791.63;;;3.53;100.00
71573;BME280;59408;51.032;9.410;2023-12-20T11:17:46;98789.53;;;3.50;100.00
71573;BME280;59408;51.032;9.410;2023-12-20T11:20:17;98783.53;;;3.53;100.00
71573;BME280;59408;51.032;9.410;2023-12-20T11:22:52;98776.25;;;3.54;100.00
71573;BME280;59408;51.032;9.410;2023-12-20T11:25:20;98782.03;;;3.47;100.00
71573;BME280;59408;51.032;9.410;2023-12-20T11:28:09;98783.84;;;3.51;100.00
71573;BME280;59408;51.032;9.410;2023-12-20T11:30:42;98778.75;;;3.50;100.00
71573;BME280;59408;51.032;9.410;2023-12-20T11:33:09;98780.63;;;3.49;100.00
71573;BME280;59408;51.032;9.410;2023-12-20T11:35:36;98777.44;;;3.47;100.00
71573;BME280;59408;51.032;9.410;2023-12-20T11:38:03;98788.72;;;3.49;100.00
71573;BME280;59408;51.032;9.410;2023-12-20T11:40:33;98786.94;;;3.45;100.00
71573;BME280;59408;51.032;9.410;2023-12-20T11:43:01;98785.13;;;3.40;100.00
71573;BME280;59408;51.032;9.410;2023-12-20T11:45:27;98788.84;;;3.44;100.00
71573;BME280;59408;51.032;9.410;2023-12-20T11:47:56;98772.22;;;3.37;100.00
71573;BME280;59408;51.032;9.410;2023-12-20T11:50:24;98773.81;;;3.38;100.00
71573;BME280;59408;51.032;9.410;2023-12-20T11:52:52;98769.53;;;3.37;100.00
71573;BME280;59408;51.032;9.410;2023-12-20T11:55:19;98772.22;;;3.37;100.00
71573;BME280;59408;51.032;9.410;2023-12-20T11:57:47;98760.84;;;3.40;100.00
71573;BME280;59408;51.032;9.410;2023-12-20T12:00:14;98764.28;;;3.46;100.00
71573;BME280;59408;51.032;9.410;2023-12-20T12:02:42;98752.56;;;3.50;100.00
71573;BME280;59408;51.032;9.410;2023-12-20T12:05:11;98761.84;;;3.58;100.00
71573;BME280;59408;51.032;9.410;2023-12-20T12:07:38;98764.06;;;3.56;100.00
71573;BME280;59408;51.032;9.410;2023-12-20T12:10:06;98753.78;;;3.58;100.00
71573;BME280;59408;51.032;9.410;2023-12-20T12:12:33;98742.19;;;3.58;100.00
71573;BME280;59408;51.032;9.410;2023-12-20T12:15:00;98745.28;;;3.65;100.00
71573;BME280;59408;51.032;9.410;2023-12-20T12:17:27;98738.50;;;3.67;100.00
71573;BME280;59408;51.032;9.410;2023-12-20T12:20:02;98729.31;;;3.68;100.00
71573;BME280;59408;51.032;9.410;2023-12-20T12:22:29;98727.59;;;3.72;100.00
71573;BME280;59408;51.032;9.410;2023-12-20T12:24:59;98725.81;;;3.68;100.00
71573;BME280;59408;51.032;9.410;2023-12-20T12:27:27;98711.00;;;3.65;100.00
71573;BME280;59408;51.032;9.410;2023-12-20T12:30:02;98712.81;;;3.70;100.00
71573;BME280;59408;51.032;9.410;2023-12-20T12:32:29;98711.81;;;3.66;100.00
71573;BME280;59408;51.032;9.410;2023-12-20T12:34:56;98705.72;;;3.60;100.00
71573;BME280;59408;51.032;9.410;2023-12-20T12:37:23;98685.47;;;3.63;100.00
71573;BME280;59408;51.032;9.410;2023-12-20T12:39:49;98696.44;;;3.66;100.00
71573;BME280;59408;51.032;9.410;2023-12-20T12:42:16;98675.16;;;3.78;100.00
71573;BME280;59408;51.032;9.410;2023-12-20T12:44:42;98680.50;;;3.92;100.00
71573;BME280;59408;51.032;9.410;2023-12-20T12:47:10;98667.81;;;3.93;100.00
71573;BME280;59408;51.032;9.410;2023-12-20T12:49:37;98671.19;;;3.98;100.00
71573;BME280;59408;51.032;9.410;2023-12-20T12:52:04;98666.09;;;3.97;100.00
71573;BME280;59408;51.032;9.410;2023-12-20T12:54:31;98673.19;;;3.93;100.00
71573;BME280;59408;51.032;9.410;2023-12-20T12:56:57;98667.63;;;3.89;100.00
71573;BME280;59408;51.032;9.410;2023-12-20T12:59:24;98665.59;;;3.95;100.00